Time;durP1;ratioP1;P1;durP2;ratioP2;P2;SDS_P1;SDS_P2;PMS_P1;PMS_P2;Temp;Humidity;BMP_temperature;BMP_pressure;BME280_temperature;BME280_humidity;BME280_pressure;Samples;Min_cycle;Max_cycle;Signal;HPM_P1;HPM_P2
2022/11/15 00:00:21;;;;;;;331.10;26.90;;;;;;;4.21;89.07;99174.38;87658;1308;22708;-78
2022/11/15 00:02:40;;;;;;;292.60;27.10;;;;;;;4.21;89.22;99173.17;87788;1297;98410;-79
2022/11/15 00:04:42;;;;;;;339.50;28.50;;;;;;;4.22;89.23;99171.42;87399;1290;22137;-77
2022/11/15 00:06:48;;;;;;;285.80;33.00;;;;;;;4.21;89.14;99166.73;87329;1315;22588;-78
2022/11/15 00:08:52;;;;;;;338.70;30.00;;;;;;;4.16;89.15;99162.31;87293;1315;98760;-77
2022/11/15 00:11:14;;;;;;;294.80;30.60;;;;;;;4.20;89.15;99168.14;87744;1297;22524;-76
2022/11/15 00:13:16;;;;;;;292.90;26.70;;;;;;;4.20;89.13;99167.45;87696;1311;98379;-78
2022/11/15 00:15:19;;;;;;;382.60;27.50;;;;;;;4.18;89.03;99166.42;87269;1315;23188;-76
2022/11/15 00:17:21;;;;;;;346.30;29.60;;;;;;;4.17;89.15;99164.72;87182;1315;23109;-76
2022/11/15 00:19:26;;;;;;;349.80;27.70;;;;;;;4.17;89.10;99162.83;87168;1313;98476;-78
2022/11/15 00:21:30;;;;;;;383.00;32.10;;;;;;;4.16;89.03;99159.53;87223;1313;22704;-78
2022/11/15 00:23:33;;;;;;;387.60;26.40;;;;;;;4.15;89.04;99157.12;87219;1291;22586;-77
2022/11/15 00:25:37;;;;;;;375.20;27.60;;;;;;;4.13;89.10;99157.49;87139;1298;98996;-77
2022/11/15 00:27:42;;;;;;;338.70;27.00;;;;;;;4.12;89.06;99157.16;87282;1291;22524;-79
2022/11/15 00:29:44;;;;;;;320.70;26.10;;;;;;;4.10;89.00;99153.05;87012;1300;25217;-76
2022/11/15 00:31:46;;;;;;;343.50;26.10;;;;;;;4.08;89.09;99151.86;86890;1306;99658;-76
2022/11/15 00:33:51;;;;;;;286.80;30.50;;;;;;;3.94;89.09;99127.78;87065;1309;22495;-77
2022/11/15 00:35:56;;;;;;;396.80;30.40;;;;;;;4.04;89.10;99143.06;87085;1283;25283;-77
2022/11/15 00:38:02;;;;;;;317.90;26.90;;;;;;;4.02;89.11;99140.83;86903;1317;98645;-77
2022/11/15 00:40:10;;;;;;;440.20;34.20;;;;;;;4.01;89.12;99141.03;87183;1283;25358;-76
2022/11/15 00:42:14;;;;;;;340.20;29.50;;;;;;;3.99;89.05;99139.15;87122;1298;22458;-77
2022/11/15 00:44:16;;;;;;;313.80;29.50;;;;;;;3.98;89.18;99138.13;86916;1315;99314;-77
2022/11/15 00:46:18;;;;;;;345.00;31.50;;;;;;;3.97;89.20;99135.20;87091;1308;22734;-76
2022/11/15 00:48:23;;;;;;;207.70;30.60;;;;;;;3.97;89.21;99131.19;87012;1315;23441;-76
2022/11/15 00:50:25;;;;;;;389.90;32.50;;;;;;;3.96;89.18;99128.44;86922;1314;99083;-76
2022/11/15 00:52:31;;;;;;;449.00;34.20;;;;;;;3.96;89.12;99132.27;86897;1287;22557;-76
2022/11/15 00:54:33;;;;;;;459.40;33.80;;;;;;;3.92;89.18;99121.58;86862;1300;22751;-76
2022/11/15 00:56:36;;;;;;;420.10;29.70;;;;;;;3.93;89.13;99126.06;86967;1291;98484;-76
2022/11/15 00:58:41;;;;;;;481.00;33.60;;;;;;;3.92;89.02;99128.16;86893;1296;22991;-76
2022/11/15 01:00:44;;;;;;;422.20;32.40;;;;;;;3.88;89.15;99127.71;87069;1290;22491;-77
2022/11/15 01:02:47;;;;;;;296.70;29.80;;;;;;;3.91;89.16;99134.08;87120;1299;98623;-77
2022/11/15 01:04:50;;;;;;;414.30;29.60;;;;;;;3.90;89.29;99130.27;87030;1307;22942;-77
2022/11/15 01:06:52;;;;;;;380.00;25.80;;;;;;;3.89;89.19;99127.52;86776;1293;22508;-77
2022/11/15 01:08:56;;;;;;;419.40;29.90;;;;;;;3.77;89.12;99108.62;86864;1315;100073;-77
2022/11/15 01:11:09;;;;;;;219.60;26.60;;;;;;;3.86;89.04;99133.32;86977;1290;24267;-78
2022/11/15 01:13:12;;;;;;;229.60;28.50;;;;;;;3.77;89.03;99118.52;86903;1299;98793;-77
2022/11/15 01:15:19;;;;;;;224.40;30.20;;;;;;;3.85;89.21;99128.80;86967;1315;22526;-77
2022/11/15 01:17:25;;;;;;;290.50;27.90;;;;;;;3.86;89.25;99124.96;87120;1298;23772;-77
2022/11/15 01:19:33;;;;;;;229.20;29.70;;;;;;;3.89;89.21;99125.77;86685;1299;98792;-77
2022/11/15 01:21:37;;;;;;;281.90;26.10;;;;;;;3.88;89.14;99116.40;86891;1300;23573;-76
2022/11/15 01:23:46;;;;;;;165.80;27.30;;;;;;;3.94;89.16;99114.05;86855;1298;22609;-77
2022/11/15 01:25:48;;;;;;;232.60;27.60;;;;;;;3.93;89.20;99121.89;86858;1313;98537;-76
2022/11/15 01:27:51;;;;;;;145.30;27.80;;;;;;;3.91;88.96;99118.10;86969;1307;22596;-77
2022/11/15 01:29:54;;;;;;;143.80;26.60;;;;;;;3.88;89.06;99118.48;87025;1298;22523;-77
2022/11/15 01:31:58;;;;;;;195.80;27.80;;;;;;;3.86;89.09;99118.52;87050;1290;100055;-77
2022/11/15 01:34:01;;;;;;;81.20;23.80;;;;;;;3.83;89.01;99114.42;87130;1297;22526;-78
2022/11/15 01:36:12;;;;;;;184.30;26.20;;;;;;;3.81;89.11;99115.15;87021;1299;22283;-78
2022/11/15 01:38:17;;;;;;;193.80;29.30;;;;;;;3.82;89.15;99115.48;87028;1294;98800;-77
2022/11/15 01:40:20;;;;;;;172.60;27.20;;;;;;;3.85;89.02;99116.30;86870;1294;22485;-77
2022/11/15 01:42:25;;;;;;;204.30;27.40;;;;;;;3.88;89.05;99114.49;86984;1298;22639;-77
2022/11/15 01:44:41;;;;;;;264.30;26.70;;;;;;;3.92;89.18;99114.77;86874;1308;99856;-76
2022/11/15 01:46:48;;;;;;;362.10;28.30;;;;;;;3.92;89.13;99114.59;87045;1304;24409;-77
2022/11/15 01:48:54;;;;;;;304.40;25.30;;;;;;;3.91;89.25;99111.31;86812;1315;22881;-77
2022/11/15 01:50:57;;;;;;;375.70;25.90;;;;;;;3.90;89.32;99105.95;86633;1303;99567;-76
2022/11/15 01:53:00;;;;;;;188.80;22.90;;;;;;;3.89;89.28;99109.95;86915;1306;24021;-76
2022/11/15 01:55:09;;;;;;;211.90;25.30;;;;;;;3.73;89.05;99080.55;86983;1308;22424;-78
2022/11/15 01:57:13;;;;;;;224.20;25.40;;;;;;;3.86;89.12;99100.63;87152;1293;22950;-78
2022/11/15 01:59:19;;;;;;;176.20;24.40;;;;;;;3.83;88.78;99098.95;87245;1298;22495;-77
2022/11/15 02:01:25;;;;;;;172.00;23.10;;;;;;;3.81;89.00;99094.30;86861;1294;99103;-77
2022/11/15 02:03:41;;;;;;;179.40;23.20;;;;;;;3.81;89.13;99094.14;87107;1291;23337;-77
2022/11/15 02:05:44;;;;;;;271.30;25.70;;;;;;;3.72;88.96;99074.48;86984;1314;22478;-78
2022/11/15 02:07:48;;;;;;;184.10;26.40;;;;;;;3.81;89.02;99086.83;86843;1315;99878;-77
2022/11/15 02:09:51;;;;;;;199.30;24.30;;;;;;;3.80;89.04;99085.81;86895;1309;22652;-77
2022/11/15 02:11:55;;;;;;;244.20;27.40;;;;;;;3.77;89.08;99086.20;86953;1291;22550;-77
2022/11/15 02:14:01;;;;;;;205.80;26.70;;;;;;;3.78;89.01;99088.63;86962;1312;100897;-76
2022/11/15 02:16:36;;;;;;;233.70;27.40;;;;;;;3.78;88.99;99082.70;87043;1298;22568;-79
2022/11/15 02:18:50;;;;;;;293.40;25.00;;;;;;;3.79;89.00;99081.30;87028;1315;22545;-77
2022/11/15 02:21:06;;;;;;;359.90;26.80;;;;;;;3.80;89.09;99084.40;87071;1302;98460;-78
2022/11/15 02:23:35;;;;;;;357.60;24.70;;;;;;;3.83;88.95;99080.36;87270;1306;22724;-77
2022/11/15 02:25:39;;;;;;;426.80;35.00;;;;;;;3.85;89.15;99075.63;87038;1284;98501;-78
2022/11/15 02:27:55;;;;;;;442.40;30.10;;;;;;;3.82;89.13;99069.08;86581;1313;22481;-77
2022/11/15 02:30:18;;;;;;;287.70;29.10;;;;;;;3.86;88.94;99069.35;86735;1297;22498;-77
2022/11/15 02:32:40;;;;;;;432.60;31.00;;;;;;;3.86;89.06;99071.25;86777;1304;98407;-77
2022/11/15 02:34:48;;;;;;;537.30;29.90;;;;;;;3.85;89.03;99070.06;86718;1310;24713;-78
2022/11/15 02:37:11;;;;;;;484.10;30.20;;;;;;;3.85;89.11;99073.19;86860;1312;24206;-77
2022/11/15 02:39:38;;;;;;;321.40;25.90;;;;;;;3.84;88.87;99064.87;86696;1291;24302;-78
2022/11/15 02:43:56;;;;;;;449.50;36.20;;;;;;;3.87;89.04;99061.84;86733;1284;24275;-78
2022/11/15 02:44:44;;;;;;;440.10;32.30;;;;;;;3.89;88.95;99064.25;86822;1298;99177;-77
2022/11/15 02:47:13;;;;;;;408.90;35.10;;;;;;;3.89;89.21;99062.84;86753;1283;22521;-77
2022/11/15 02:49:18;;;;;;;427.50;34.20;;;;;;;3.92;89.16;99060.36;86993;1287;22696;-78
2022/11/15 02:51:21;;;;;;;646.40;40.80;;;;;;;3.92;89.16;99059.30;86624;1300;23672;-78
2022/11/15 02:53:27;;;;;;;479.00;37.40;;;;;;;3.92;89.21;99049.39;86774;1287;23331;-77
2022/11/15 02:55:41;;;;;;;528.70;37.20;;;;;;;3.92;89.32;99050.45;86628;1315;98656;-77
2022/11/15 02:58:17;;;;;;;754.40;43.40;;;;;;;3.87;89.24;99044.82;86816;1315;25390;-77
2022/11/15 03:00:20;;;;;;;470.00;35.50;;;;;;;3.87;88.90;99047.42;86800;1313;22549;-77
2022/11/15 03:02:35;;;;;;;420.60;35.30;;;;;;;3.87;89.06;99046.90;86712;1292;100465;-77
2022/11/15 03:04:44;;;;;;;654.30;44.60;;;;;;;3.88;89.03;99044.63;87046;1301;22778;-79
2022/11/15 03:07:08;;;;;;;591.60;41.20;;;;;;;3.87;89.18;99037.86;86782;1291;22612;-78
2022/11/15 03:09:55;;;;;;;499.10;40.90;;;;;;;3.88;88.95;99029.48;86271;1318;99963;-77
2022/11/15 03:12:11;;;;;;;386.50;33.40;;;;;;;3.90;89.09;99030.86;85859;1309;22733;-77
2022/11/15 03:14:17;;;;;;;390.40;39.20;;;;;;;3.93;89.16;99040.52;85702;1321;98452;-77
2022/11/15 03:16:40;;;;;;;356.40;34.20;;;;;;;3.77;89.00;99011.99;85867;1320;22522;-77
2022/11/15 03:18:51;;;;;;;482.20;39.00;;;;;;;3.94;89.19;99035.65;86032;1321;23074;-77
2022/11/15 03:20:57;;;;;;;539.90;36.40;;;;;;;3.96;89.09;99029.69;86173;1312;98427;-77
2022/11/15 03:23:11;;;;;;;404.40;32.10;;;;;;;3.87;89.16;99021.02;86409;1317;22024;-77
2022/11/15 03:25:23;;;;;;;605.60;46.40;;;;;;;3.97;89.01;99028.62;86873;1326;22019;-78
2022/11/15 03:27:32;;;;;;;512.20;30.20;;;;;;;3.97;88.96;99022.73;87062;1321;22570;-77
2022/11/15 03:29:41;;;;;;;450.40;34.30;;;;;;;3.99;89.12;99023.70;87101;1324;22943;-79
2022/11/15 03:31:50;;;;;;;425.20;35.20;;;;;;;3.87;89.21;99001.88;86861;1324;98331;-78
2022/11/15 03:34:00;;;;;;;531.10;34.00;;;;;;;3.95;89.03;99004.50;86855;1311;21946;-79
2022/11/15 03:36:03;;;;;;;519.70;40.20;;;;;;;4.05;89.19;99017.52;86846;1321;22144;-78
2022/11/15 03:38:31;;;;;;;491.40;40.20;;;;;;;4.07;89.33;99016.24;86703;1313;98661;-77
2022/11/15 03:40:53;;;;;;;367.30;29.60;;;;;;;4.09;89.12;99011.70;86783;1314;22144;-79
2022/11/15 03:43:30;;;;;;;261.40;27.90;;;;;;;4.07;89.08;99003.04;86567;1314;22444;-78
2022/11/15 03:46:11;;;;;;;398.40;35.30;;;;;;;4.10;89.12;99003.49;85622;1332;22529;-77
2022/11/15 03:48:24;;;;;;;348.20;31.70;;;;;;;4.00;89.02;98985.61;86093;1319;22468;-77
2022/11/15 03:50:31;;;;;;;426.70;33.70;;;;;;;4.10;89.04;98997.77;86495;1310;99914;-78
2022/11/15 03:52:34;;;;;;;374.70;32.10;;;;;;;4.10;89.16;98996.88;86518;1323;22765;-78
2022/11/15 03:54:47;;;;;;;378.50;32.60;;;;;;;4.12;89.01;98994.76;86098;1323;22518;-77
2022/11/15 03:56:53;;;;;;;689.40;44.80;;;;;;;4.14;89.08;98991.23;86125;1322;98668;-77
2022/11/15 03:58:56;;;;;;;479.80;35.20;;;;;;;4.07;89.02;98977.30;86212;1313;24275;-76
2022/11/15 04:01:03;;;;;;;376.20;34.50;;;;;;;4.05;88.97;98967.27;86302;1307;22585;-77
2022/11/15 04:03:07;;;;;;;422.50;35.20;;;;;;;4.15;89.01;98984.62;86201;1307;98618;-78
2022/11/15 04:05:09;;;;;;;412.60;37.50;;;;;;;4.09;88.88;98975.00;86281;1309;22757;-77
2022/11/15 04:07:11;;;;;;;400.50;35.10;;;;;;;4.09;88.90;98977.95;86498;1321;22500;-78
2022/11/15 04:09:13;;;;;;;450.10;34.50;;;;;;;4.07;88.96;98972.08;86236;1321;99795;-78
2022/11/15 04:11:15;;;;;;;396.40;35.10;;;;;;;4.07;88.88;98967.73;86499;1320;22674;-78
2022/11/15 04:13:17;;;;;;;445.30;42.90;;;;;;;4.08;88.90;98962.84;86059;1324;22532;-76
2022/11/15 04:15:23;;;;;;;387.50;40.10;;;;;;;4.07;88.94;98965.11;86052;1309;98773;-78
2022/11/15 04:17:25;;;;;;;472.80;38.00;;;;;;;4.08;88.97;98961.98;86334;1323;22523;-78
2022/11/15 04:24:16;;;;;;;481.40;36.80;;;;;;;4.04;88.93;98950.59;86988;1307;22446;-78
2022/11/15 04:26:22;;;;;;;551.30;37.40;;;;;;;3.99;88.72;98949.67;86906;1306;99642;-77
2022/11/15 04:28:24;;;;;;;414.30;36.60;;;;;;;3.94;88.84;98945.27;87102;1306;22445;-77
2022/11/15 04:30:27;;;;;;;614.80;39.30;;;;;;;3.88;88.75;98942.41;87237;1308;22520;-77
2022/11/15 04:32:29;;;;;;;454.10;33.10;;;;;;;3.85;88.86;98941.09;87125;1302;98697;-78
2022/11/15 04:34:32;;;;;;;402.70;32.50;;;;;;;3.84;88.91;98937.80;86976;1290;22425;-78
2022/11/15 04:39:02;;;;;;;373.20;31.70;;;;;;;3.81;89.02;98930.76;86731;1316;100955;-78
2022/11/15 04:41:04;;;;;;;345.20;26.70;;;;;;;3.71;89.00;98908.55;87205;1292;23376;-77
2022/11/15 04:43:10;;;;;;;332.80;29.10;;;;;;;3.81;88.99;98923.44;86558;1313;24865;-77
2022/11/15 04:45:15;;;;;;;316.40;29.10;;;;;;;3.85;89.01;98928.06;86830;1301;98878;-78
2022/11/15 04:47:19;;;;;;;362.80;33.50;;;;;;;3.83;88.95;98925.84;86862;1290;22629;-77
2022/11/15 04:49:21;;;;;;;342.10;28.70;;;;;;;3.72;88.94;98911.12;86881;1302;23325;-77
2022/11/15 04:51:25;;;;;;;349.70;26.90;;;;;;;3.80;89.01;98926.42;86801;1317;99547;-77
2022/11/15 04:53:30;;;;;;;439.50;30.40;;;;;;;3.79;89.00;98924.54;86836;1309;25390;-79
2022/11/15 04:55:35;;;;;;;587.80;41.00;;;;;;;3.79;88.95;98925.92;86852;1300;22496;-78
2022/11/15 04:57:40;;;;;;;618.80;38.70;;;;;;;3.80;88.86;98922.76;86902;1312;98557;-77
2022/11/15 04:59:43;;;;;;;407.80;29.20;;;;;;;3.78;88.95;98915.53;86807;1289;22499;-78
2022/11/15 05:01:46;;;;;;;364.10;31.00;;;;;;;3.82;89.15;98914.05;86710;1315;22508;-78
2022/11/15 05:06:10;;;;;;;446.70;37.50;;;;;;;3.82;89.09;98908.84;86709;1299;23994;-78
2022/11/15 05:08:15;;;;;;;415.70;34.70;;;;;;;3.70;89.18;98888.95;86630;1312;98760;-77
2022/11/15 05:10:17;;;;;;;319.20;28.60;;;;;;;3.81;89.14;98912.31;86863;1304;23746;-78
2022/11/15 05:12:19;;;;;;;348.10;28.50;;;;;;;3.65;88.87;98883.48;86501;1309;22568;-76
2022/11/15 05:14:22;;;;;;;393.00;32.10;;;;;;;3.81;88.89;98905.55;86631;1294;99711;-77
2022/11/15 05:16:24;;;;;;;358.40;28.20;;;;;;;3.82;88.99;98903.45;86730;1300;22493;-77
2022/11/15 05:18:32;;;;;;;406.40;32.80;;;;;;;3.81;89.04;98902.77;86638;1294;22534;-77
2022/11/15 05:20:44;;;;;;;430.90;36.60;;;;;;;3.81;88.93;98899.11;86594;1294;98643;-78
2022/11/15 05:22:49;;;;;;;515.40;32.00;;;;;;;3.81;88.96;98897.89;86774;1315;22540;-77
2022/11/15 05:24:51;;;;;;;376.90;29.40;;;;;;;3.81;88.86;98898.41;86690;1317;23841;-77
2022/11/15 05:26:54;;;;;;;388.40;32.40;;;;;;;3.73;89.08;98884.00;86486;1318;99679;-77
2022/11/15 05:29:03;;;;;;;388.00;30.90;;;;;;;3.79;88.92;98895.34;86647;1294;25106;-77
2022/11/15 05:31:09;;;;;;;431.50;32.00;;;;;;;3.77;88.94;98889.98;86755;1315;22461;-78
2022/11/15 05:33:18;;;;;;;517.20;37.80;;;;;;;3.76;89.10;98892.27;86565;1295;98412;-76
2022/11/15 05:35:42;;;;;;;504.60;35.50;;;;;;;3.75;88.96;98890.38;86843;1302;22802;-78
2022/11/15 05:37:44;;;;;;;223.90;22.90;;;;;;;3.63;88.92;98876.58;86880;1300;22553;-78
2022/11/15 05:40:04;;;;;;;431.10;29.50;;;;;;;3.62;88.76;98889.09;86818;1293;22526;-77
2022/11/15 05:42:12;;;;;;;386.50;27.10;;;;;;;3.56;88.77;98891.13;86628;1307;23757;-77
2022/11/15 05:44:17;;;;;;;249.60;26.60;;;;;;;3.52;88.81;98896.59;86401;1316;100393;-78
2022/11/15 05:46:20;;;;;;;354.30;27.30;;;;;;;3.50;88.70;98897.88;86910;1313;23250;-77
2022/11/15 05:48:25;;;;;;;388.50;28.20;;;;;;;3.47;88.79;98896.54;86483;1317;22475;-77
2022/11/15 05:50:28;;;;;;;407.00;32.70;;;;;;;3.44;88.75;98891.73;86223;1321;99914;-78
2022/11/15 05:52:36;;;;;;;298.00;24.00;;;;;;;3.45;88.86;98895.70;86373;1297;22920;-77
2022/11/15 05:54:40;;;;;;;294.30;26.50;;;;;;;3.44;88.76;98892.08;86584;1312;24424;-78
2022/11/15 05:56:46;;;;;;;146.10;22.40;;;;;;;3.41;88.83;98896.14;86304;1292;100319;-75
2022/11/15 05:58:49;;;;;;;245.90;23.50;;;;;;;3.26;88.77;98871.95;86589;1291;23837;-75
2022/11/15 06:00:51;;;;;;;285.50;23.00;;;;;;;3.38;88.80;98893.76;86573;1286;22493;-76
2022/11/15 06:02:55;;;;;;;295.60;28.80;;;;;;;3.38;88.86;98891.67;86536;1298;98760;-75
2022/11/15 06:04:58;;;;;;;214.30;26.80;;;;;;;3.38;88.76;98886.30;86649;1315;25401;-74
2022/11/15 06:07:03;;;;;;;216.40;27.90;;;;;;;3.37;88.74;98887.20;86563;1297;22497;-75
2022/11/15 06:09:05;;;;;;;209.00;23.00;;;;;;;3.31;88.59;98886.42;86296;1294;100266;-75
2022/11/15 06:11:07;;;;;;;110.40;18.10;;;;;;;3.28;88.72;98883.71;86148;1301;23102;-76
2022/11/15 06:13:09;;;;;;;145.50;18.30;;;;;;;3.21;88.68;98870.32;86364;1292;22725;-74
2022/11/15 06:15:11;;;;;;;200.10;21.20;;;;;;;3.21;88.69;98875.50;86279;1293;98604;-75
2022/11/15 06:17:13;;;;;;;222.50;20.30;;;;;;;3.18;88.78;98879.73;86133;1292;22609;-75
2022/11/15 06:19:15;;;;;;;169.40;20.30;;;;;;;3.17;88.72;98875.42;86512;1291;22544;-75
2022/11/15 06:21:16;;;;;;;164.80;21.90;;;;;;;3.16;88.97;98872.51;86286;1301;98612;-75
2022/11/15 06:23:18;;;;;;;96.40;19.10;;;;;;;3.16;88.92;98875.80;86462;1299;22505;-75
2022/11/15 06:25:20;;;;;;;125.80;20.40;;;;;;;3.14;88.98;98872.36;86522;1301;22519;-76
2022/11/15 06:27:22;;;;;;;205.10;21.60;;;;;;;3.12;88.83;98871.35;86322;1300;100200;-76
2022/11/15 06:29:24;;;;;;;158.20;20.40;;;;;;;3.08;88.86;98873.52;86387;1290;22508;-75
2022/11/15 06:31:25;;;;;;;162.00;22.00;;;;;;;3.05;88.87;98873.92;86577;1301;22645;-75
2022/11/15 06:33:27;;;;;;;206.10;26.80;;;;;;;3.05;89.01;98878.80;86481;1290;100252;-74
2022/11/15 06:35:30;;;;;;;174.40;24.40;;;;;;;3.05;88.98;98878.80;86593;1291;22956;-76
2022/11/15 06:37:33;;;;;;;203.90;23.90;;;;;;;3.06;89.17;98877.39;86700;1307;22731;-76
2022/11/15 06:39:35;;;;;;;231.40;23.00;;;;;;;3.05;88.92;98876.02;86611;1291;100518;-76
2022/11/15 06:41:37;;;;;;;233.40;23.40;;;;;;;3.03;88.78;98878.14;86777;1290;22513;-75
2022/11/15 06:43:39;;;;;;;200.00;22.40;;;;;;;3.01;88.83;98877.47;86263;1300;24275;-76
2022/11/15 06:45:41;;;;;;;230.90;27.70;;;;;;;3.01;89.17;98876.27;86433;1291;100392;-76
2022/11/15 06:47:47;;;;;;;213.80;23.50;;;;;;;3.01;88.96;98880.95;86486;1300;23752;-75
2022/11/15 06:49:48;;;;;;;189.30;23.80;;;;;;;3.00;88.90;98876.98;86673;1300;23108;-75
2022/11/15 06:51:50;;;;;;;237.30;27.20;;;;;;;2.99;88.92;98882.19;86506;1294;99866;-75
2022/11/15 06:53:53;;;;;;;267.90;24.20;;;;;;;2.99;89.16;98879.07;86711;1296;22505;-75
2022/11/15 06:56:01;;;;;;;128.00;22.90;;;;;;;2.98;88.84;98873.71;86695;1312;22448;-77
2022/11/15 06:58:03;;;;;;;171.10;23.80;;;;;;;3.00;88.84;98876.64;87321;1312;98348;-75
2022/11/15 07:00:06;;;;;;;157.10;21.30;;;;;;;2.93;89.08;98869.14;87522;1313;24352;-74
2022/11/15 07:02:14;;;;;;;198.10;22.40;;;;;;;2.99;88.90;98874.03;87178;1291;98801;-73
2022/11/15 07:04:16;;;;;;;232.10;22.00;;;;;;;3.01;88.86;98870.70;87059;1286;24411;-74
2022/11/15 07:06:18;;;;;;;133.20;19.20;;;;;;;3.03;89.09;98878.30;87176;1297;23705;-73
2022/11/15 07:08:22;;;;;;;193.00;22.30;;;;;;;3.03;89.02;98878.13;86704;1289;98752;-74
2022/11/15 07:10:27;;;;;;;73.10;14.50;;;;;;;3.00;89.06;98877.14;86687;1287;25237;-74
2022/11/15 07:12:31;;;;;;;125.00;20.10;;;;;;;2.97;88.76;98879.99;86667;1289;24228;-75
2022/11/15 07:14:34;;;;;;;106.10;19.70;;;;;;;2.96;88.96;98886.42;86356;1294;99659;-75
2022/11/15 07:16:37;;;;;;;68.10;16.60;;;;;;;2.98;89.28;98880.31;86332;1295;23405;-74
2022/11/15 07:18:40;;;;;;;115.40;20.20;;;;;;;3.01;89.09;98885.64;86657;1292;22737;-73
2022/11/15 07:20:41;;;;;;;216.20;19.70;;;;;;;3.02;89.11;98881.45;86280;1289;99593;-74
2022/11/15 07:22:45;;;;;;;143.30;20.90;;;;;;;3.01;88.91;98886.86;86348;1294;22506;-74
2022/11/15 07:24:47;;;;;;;179.20;23.70;;;;;;;3.00;88.84;98876.61;86766;1292;22472;-74
2022/11/15 07:26:52;;;;;;;166.50;24.00;;;;;;;3.00;88.83;98874.55;86455;1291;98704;-75
2022/11/15 07:28:54;;;;;;;159.50;22.00;;;;;;;2.98;89.07;98874.59;86608;1289;22718;-74
2022/11/15 07:30:56;;;;;;;165.90;22.60;;;;;;;3.00;89.07;98874.02;86737;1287;22614;-75
2022/11/15 07:33:00;;;;;;;223.70;26.40;;;;;;;3.03;89.04;98871.52;86574;1284;99659;-75
2022/11/15 07:35:01;;;;;;;72.70;23.40;;;;;;;3.06;89.18;98865.23;86455;1289;24252;-74
2022/11/15 07:37:04;;;;;;;246.40;24.60;;;;;;;3.09;89.10;98863.25;86463;1289;24376;-75
2022/11/15 07:39:07;;;;;;;288.50;27.20;;;;;;;3.11;89.19;98863.04;86502;1289;99586;-73
2022/11/15 07:41:08;;;;;;;179.70;22.80;;;;;;;3.14;89.03;98863.86;86555;1284;24162;-75
2022/11/15 07:43:10;;;;;;;168.00;26.60;;;;;;;3.15;88.86;98864.52;86087;1299;286792;-75
2022/11/15 07:45:12;;;;;;;235.80;28.30;;;;;;;3.18;89.02;98862.55;86325;1290;100165;-73
2022/11/15 07:47:16;;;;;;;161.80;26.50;;;;;;;3.18;89.00;98870.89;86394;1293;22680;-75
2022/11/15 07:49:17;;;;;;;64.80;24.30;;;;;;;3.18;89.06;98870.18;86420;1287;22769;-74
2022/11/15 07:51:19;;;;;;;232.30;33.30;;;;;;;3.21;89.04;98867.02;86354;1296;98563;-74
2022/11/15 07:53:24;;;;;;;165.70;28.40;;;;;;;3.22;89.20;98863.34;86366;1291;25930;-74
2022/11/15 07:55:29;;;;;;;227.50;30.40;;;;;;;3.23;89.29;98861.41;86361;1291;22525;-74
2022/11/15 07:57:31;;;;;;;272.10;34.60;;;;;;;3.23;89.01;98856.20;86577;1301;98585;-74
2022/11/15 07:59:34;;;;;;;300.20;30.70;;;;;;;3.21;88.85;98855.55;86605;1300;23993;-75
2022/11/15 08:01:36;;;;;;;161.90;31.10;;;;;;;3.22;88.84;98854.14;86505;1289;23552;-74
2022/11/15 08:03:38;;;;;;;184.40;31.10;;;;;;;3.28;89.01;98851.26;86337;1296;99614;-74
2022/11/15 08:05:42;;;;;;;141.90;29.30;;;;;;;3.30;89.09;98849.80;86426;1290;22525;-74
2022/11/15 08:07:43;;;;;;;216.60;30.50;;;;;;;3.35;89.00;98847.29;86483;1302;22435;-73
2022/11/15 08:09:45;;;;;;;132.50;29.30;;;;;;;3.34;88.97;98843.13;86572;1297;98459;-73
2022/11/15 08:11:47;;;;;;;124.70;27.50;;;;;;;3.34;89.04;98839.30;86438;1296;22978;-74
2022/11/15 08:13:49;;;;;;;154.40;28.10;;;;;;;3.35;88.83;98843.27;86536;1287;22538;-74
2022/11/15 08:15:50;;;;;;;101.20;26.70;;;;;;;3.39;89.01;98832.77;86424;1290;99797;-75
2022/11/15 08:18:01;;;;;;;127.50;27.40;;;;;;;3.43;89.16;98836.52;86448;1292;22649;-73
2022/11/15 08:20:03;;;;;;;126.20;28.30;;;;;;;3.45;89.11;98837.87;86246;1294;22563;-76
2022/11/15 08:22:05;;;;;;;143.40;26.30;;;;;;;3.48;89.21;98838.48;85955;1287;101209;-76
2022/11/15 08:24:10;;;;;;;87.10;26.20;;;;;;;3.50;89.23;98839.50;85985;1290;22539;-76
2022/11/15 08:26:12;;;;;;;64.10;24.90;;;;;;;3.50;88.93;98836.36;86093;1287;98653;-77
2022/11/15 08:28:17;;;;;;;154.60;25.50;;;;;;;3.51;89.09;98836.33;86191;1289;22488;-78
2022/11/15 08:30:19;;;;;;;150.50;27.60;;;;;;;3.53;89.06;98836.46;86027;1286;23267;-77
2022/11/15 08:32:21;;;;;;;236.80;28.90;;;;;;;3.55;89.01;98836.43;86076;1287;98705;-77
2022/11/15 08:34:23;;;;;;;273.40;29.70;;;;;;;3.54;89.02;98835.04;85812;1293;22483;-76
2022/11/15 08:36:25;;;;;;;212.70;30.00;;;;;;;3.54;89.03;98833.13;85981;1294;22507;-76
2022/11/15 08:38:28;;;;;;;179.80;31.80;;;;;;;3.54;88.99;98829.14;86049;1287;99376;-78
2022/11/15 08:40:30;;;;;;;223.70;36.40;;;;;;;3.54;89.12;98834.35;85959;1301;26014;-78
2022/11/15 08:42:32;;;;;;;135.60;32.30;;;;;;;3.54;88.84;98832.62;85966;1290;25389;-79
2022/11/15 08:44:34;;;;;;;232.10;33.30;;;;;;;3.55;88.98;98833.30;85817;1290;99684;-78
2022/11/15 08:47:02;;;;;;;164.70;31.70;;;;;;;3.56;89.19;98832.41;86278;1287;22777;-75
2022/11/15 08:49:06;;;;;;;187.80;34.10;;;;;;;3.63;89.13;98832.45;86448;1290;24251;-78
2022/11/15 08:51:08;;;;;;;210.70;36.40;;;;;;;3.68;89.33;98834.05;85734;1297;100067;-78
2022/11/15 08:53:12;;;;;;;128.40;36.10;;;;;;;3.74;89.21;98834.45;85840;1290;25378;-77
2022/11/15 08:55:14;;;;;;;177.40;32.90;;;;;;;3.80;89.29;98831.88;85967;1290;25424;-76
2022/11/15 08:57:16;;;;;;;124.40;33.90;;;;;;;3.80;89.21;98825.80;86094;1291;99949;-74
2022/11/15 08:59:18;;;;;;;129.10;33.40;;;;;;;3.87;89.13;98826.67;86363;1289;24249;-74
2022/11/15 09:01:22;;;;;;;105.50;33.70;;;;;;;3.92;89.23;98826.20;86375;1289;22531;-74
2022/11/15 09:03:24;;;;;;;87.00;34.70;;;;;;;3.98;89.29;98826.41;86606;1294;99761;-74
2022/11/15 09:05:26;;;;;;;92.00;34.80;;;;;;;4.03;89.33;98826.64;86435;1294;22904;-73
2022/11/15 09:07:29;;;;;;;127.30;33.80;;;;;;;4.08;89.49;98823.23;86817;1290;22689;-74
2022/11/15 09:09:31;;;;;;;93.10;32.50;;;;;;;4.11;89.25;98817.59;86537;1293;99434;-75
2022/11/15 09:11:33;;;;;;;103.70;32.10;;;;;;;4.11;89.24;98819.31;86587;1301;25504;-75
2022/11/15 09:13:36;;;;;;;94.10;33.20;;;;;;;4.15;89.23;98815.59;86403;1285;22661;-74
2022/11/15 09:15:38;;;;;;;95.60;33.70;;;;;;;4.20;89.15;98815.98;86442;1306;99562;-73
2022/11/15 09:17:40;;;;;;;94.70;33.70;;;;;;;4.24;89.27;98814.47;86341;1290;23093;-74
2022/11/15 09:19:42;;;;;;;70.70;32.20;;;;;;;4.29;89.28;98810.72;86351;1290;25758;-74
2022/11/15 09:21:44;;;;;;;127.50;37.70;;;;;;;4.33;89.22;98807.48;86524;1284;99463;-73
2022/11/15 09:23:45;;;;;;;80.40;34.90;;;;;;;4.38;89.22;98803.17;86646;1294;22542;-74
2022/11/15 09:25:47;;;;;;;76.00;36.00;;;;;;;4.45;89.35;98804.23;86461;1292;22662;-74
2022/11/15 09:27:49;;;;;;;73.00;35.70;;;;;;;4.55;89.51;98805.19;86177;1302;100506;-73
2022/11/15 09:29:50;;;;;;;77.10;38.40;;;;;;;4.63;89.55;98803.20;86548;1291;25722;-75
2022/11/15 09:31:55;;;;;;;77.30;36.10;;;;;;;4.79;89.63;98800.52;86610;1291;22455;-73
2022/11/15 09:33:58;;;;;;;75.70;37.20;;;;;;;4.87;89.55;98799.41;86540;1292;99228;-73
2022/11/15 09:36:07;;;;;;;60.60;34.30;;;;;;;4.93;89.50;98798.05;86728;1292;22607;-74
2022/11/15 09:38:09;;;;;;;60.00;33.40;;;;;;;4.97;89.30;98800.37;86688;1292;98397;-73
2022/11/15 09:40:16;;;;;;;62.30;34.10;;;;;;;5.01;89.22;98794.88;86725;1291;23354;-74
2022/11/15 09:42:36;;;;;;;56.80;31.60;;;;;;;5.04;89.13;98797.21;86679;1291;22473;-73
2022/11/15 09:45:05;;;;;;;61.90;34.40;;;;;;;5.07;89.21;98796.25;86736;1288;99872;-76
2022/11/15 09:47:34;;;;;;;62.80;32.20;;;;;;;5.11;89.25;98794.23;86693;1291;22703;-76
2022/11/15 09:49:36;;;;;;;63.80;32.00;;;;;;;5.15;89.31;98794.80;86869;1288;22995;-74